createdAt,value
2018-09-25T00:01:05.650Z,98888.83
2018-09-25T00:03:39.290Z,98884.85
2018-09-25T00:06:13.009Z,98891.83
2018-09-25T00:08:47.221Z,98888.30
2018-09-25T00:11:20.893Z,98884.85
2018-09-25T00:13:54.634Z,98880.23
2018-09-25T00:16:28.427Z,98878.07
2018-09-25T00:19:03.622Z,98878.18
2018-09-25T00:21:37.274Z,98878.52
2018-09-25T00:24:11.036Z,98879.50
2018-09-25T00:26:44.679Z,98881.42
2018-09-25T00:29:19.521Z,98882.25
2018-09-25T00:31:53.182Z,98880.63
2018-09-25T00:34:26.887Z,98879.95
2018-09-25T00:37:00.567Z,98872.14
2018-09-25T00:39:35.343Z,98870.52
2018-09-25T00:42:09.097Z,98872.13
2018-09-25T00:44:42.954Z,98875.60
2018-09-25T00:47:16.826Z,98868.30
2018-09-25T00:49:52.043Z,98867.16
2018-09-25T00:52:25.764Z,98867.11
2018-09-25T00:54:59.486Z,98863.13
2018-09-25T00:57:33.361Z,98860.81
2018-09-25T01:00:08.389Z,98867.74
2018-09-25T01:02:42.070Z,98870.09
2018-09-25T01:05:15.865Z,98874.03
2018-09-25T01:07:49.730Z,98874.69
2018-09-25T01:10:24.324Z,98879.66
2018-09-25T01:12:57.974Z,98883.34
2018-09-25T01:15:31.819Z,98871.70
2018-09-25T01:18:05.650Z,98867.57
2018-09-25T01:20:40.043Z,98874.56
2018-09-25T01:23:13.739Z,98876.38
2018-09-25T01:25:47.646Z,98876.03
2018-09-25T01:28:21.310Z,98883.34
2018-09-25T01:30:55.637Z,98883.78
2018-09-25T01:33:29.437Z,98882.43
2018-09-25T01:36:03.140Z,98882.91
2018-09-25T01:38:36.820Z,98881.63
2018-09-25T01:41:10.866Z,98884.26
2018-09-25T01:43:44.658Z,98882.30
2018-09-25T01:46:18.466Z,98876.32
2018-09-25T01:48:52.370Z,98874.00
2018-09-25T01:51:26.805Z,98881.63
2018-09-25T01:54:00.454Z,98878.32
2018-09-25T01:56:34.238Z,98887.95
2018-09-25T01:59:07.790Z,98889.08
2018-09-25T02:01:42.169Z,98893.52
2018-09-25T02:04:15.906Z,98899.56
2018-09-25T02:06:49.719Z,98890.45
2018-09-25T02:09:23.405Z,98886.31
2018-09-25T02:11:58.450Z,98894.30
2018-09-25T02:14:32.102Z,98895.20
2018-09-25T02:17:05.933Z,98901.57
2018-09-25T02:19:39.725Z,98899.20
2018-09-25T02:22:14.648Z,98909.30
2018-09-25T02:24:48.466Z,98909.22
2018-09-25T02:27:22.211Z,98907.96
2018-09-25T02:29:56.073Z,98904.61
2018-09-25T02:32:30.745Z,98912.86
2018-09-25T02:35:04.902Z,98912.80
2018-09-25T02:37:38.597Z,98908.36
2018-09-25T02:40:12.342Z,98903.28
2018-09-25T02:42:46.862Z,98909.84
2018-09-25T02:45:21.153Z,98909.59
2018-09-25T02:47:54.699Z,98906.95
2018-09-25T02:50:28.290Z,98913.55
2018-09-25T02:53:03.011Z,98907.18
2018-09-25T02:55:36.702Z,98906.84
2018-09-25T02:58:10.393Z,98907.99
2018-09-25T03:00:43.909Z,98914.34
2018-09-25T03:03:17.966Z,98912.45
2018-09-25T03:05:51.650Z,98912.60
2018-09-25T03:08:25.482Z,98910.50
2018-09-25T03:10:59.134Z,98909.41
2018-09-25T03:13:33.850Z,98907.38
2018-09-25T03:16:07.618Z,98913.14
2018-09-25T03:18:41.456Z,98911.77
2018-09-25T03:21:15.302Z,98916.75
2018-09-25T03:23:54.943Z,98921.33
2018-09-25T03:26:29.667Z,98914.13
2018-09-25T03:29:03.359Z,98914.78
2018-09-25T03:31:37.122Z,98920.08
2018-09-25T03:34:11.941Z,98920.81
2018-09-25T03:36:45.602Z,98925.10
2018-09-25T03:39:19.262Z,98926.06
2018-09-25T03:41:52.930Z,98931.60
2018-09-25T03:44:27.897Z,98933.98
2018-09-25T03:47:01.722Z,98937.95
2018-09-25T03:49:35.541Z,98935.20
2018-09-25T03:52:09.346Z,98936.84
2018-09-25T03:54:43.830Z,98941.31
2018-09-25T03:57:17.490Z,98939.80
2018-09-25T03:59:51.202Z,98941.19
2018-09-25T04:02:25.514Z,98939.69
2018-09-25T04:04:59.961Z,98938.91
2018-09-25T04:07:33.619Z,98941.80
2018-09-25T04:10:07.398Z,98948.33
2018-09-25T04:12:41.038Z,98950.11
2018-09-25T04:15:15.249Z,98949.05
2018-09-25T04:17:48.890Z,98952.27
2018-09-25T04:20:22.625Z,98949.27
2018-09-25T04:22:56.542Z,98954.19
2018-09-25T04:25:30.985Z,98947.95
2018-09-25T04:28:04.735Z,98947.81
2018-09-25T04:30:38.606Z,98942.74
2018-09-25T04:33:12.417Z,98939.55
2018-09-25T04:35:47.290Z,98935.69
2018-09-25T04:38:20.962Z,98941.70
2018-09-25T04:40:54.653Z,98934.89
2018-09-25T04:43:28.449Z,98939.95
2018-09-25T04:46:02.258Z,98941.50
2018-09-25T04:48:35.990Z,98937.18
2018-09-25T04:51:09.674Z,98931.23
2018-09-25T04:53:43.373Z,98934.39
2018-09-25T04:56:17.719Z,98934.85
2018-09-25T04:58:51.626Z,98927.66
2018-09-25T05:01:25.462Z,98924.79
2018-09-25T05:03:59.213Z,98926.42
2018-09-25T05:06:33.211Z,98921.97
2018-09-25T05:09:07.038Z,98924.48
2018-09-25T05:11:40.853Z,98924.55
2018-09-25T05:14:14.566Z,98925.37
2018-09-25T05:16:49.310Z,98922.34
2018-09-25T05:19:23.105Z,98922.83
2018-09-25T05:21:56.798Z,98925.63
2018-09-25T05:24:30.654Z,98920.96
2018-09-25T05:27:05.371Z,98931.23
2018-09-25T05:29:39.059Z,98930.59
2018-09-25T05:32:12.833Z,98937.56
2018-09-25T05:34:46.414Z,98932.02
2018-09-25T05:37:20.514Z,98942.11
2018-09-25T05:39:54.294Z,98951.30
2018-09-25T05:42:28.002Z,98950.22
2018-09-25T05:45:01.637Z,98968.55
2018-09-25T05:47:37.368Z,98973.66
2018-09-25T05:50:11.141Z,98972.12
2018-09-25T05:52:44.837Z,98969.98
2018-09-25T05:55:18.563Z,98971.55
2018-09-25T05:57:52.534Z,98969.02
2018-09-25T06:00:26.413Z,98965.78
2018-09-25T06:03:00.250Z,98967.23
2018-09-25T06:05:34.103Z,98967.60
2018-09-25T06:08:08.414Z,98965.17
2018-09-25T06:10:42.222Z,98964.10
2018-09-25T06:13:15.953Z,98959.15
2018-09-25T06:15:49.709Z,98960.87
2018-09-25T06:18:24.330Z,98966.89
2018-09-25T06:20:58.093Z,98963.61
2018-09-25T06:23:31.729Z,98963.33
2018-09-25T06:26:05.376Z,98968.48
2018-09-25T06:28:39.759Z,98961.14
2018-09-25T06:31:13.533Z,98943.91
2018-09-25T06:33:47.350Z,98942.15
2018-09-25T06:36:21.178Z,98944.81
2018-09-25T06:38:55.282Z,98938.38
2018-09-25T06:41:28.994Z,98928.94
2018-09-25T06:44:02.678Z,98930.51
2018-09-25T06:46:36.487Z,98929.09
2018-09-25T06:49:10.595Z,98937.30
2018-09-25T06:51:44.306Z,98927.92
2018-09-25T06:54:18.026Z,98931.20
2018-09-25T06:56:51.714Z,98940.65
2018-09-25T06:59:26.141Z,98940.33
2018-09-25T07:01:59.968Z,98945.61
2018-09-25T07:04:33.774Z,98948.77
2018-09-25T07:07:07.515Z,98947.74
2018-09-25T07:09:42.319Z,98955.86
2018-09-25T07:12:16.211Z,98960.84
2018-09-25T07:14:49.894Z,98956.73
2018-09-25T07:17:23.641Z,98957.42
2018-09-25T07:19:58.613Z,98960.44
2018-09-25T07:22:32.368Z,98962.47
2018-09-25T07:25:06.170Z,98962.63
2018-09-25T07:27:39.802Z,98965.32
2018-09-25T07:30:13.957Z,98972.36
2018-09-25T07:32:47.754Z,98969.33
2018-09-25T07:35:21.525Z,98973.53
2018-09-25T07:37:55.401Z,98975.48
2018-09-25T07:40:29.262Z,98972.18
2018-09-25T07:43:13.647Z,98983.83
2018-09-25T07:45:48.547Z,98973.09
2018-09-25T07:48:22.502Z,98985.53
2018-09-25T07:50:56.174Z,98979.34
2018-09-25T07:53:30.621Z,98989.92
2018-09-25T07:56:04.271Z,98986.56
2018-09-25T07:58:38.953Z,98989.03
2018-09-25T08:01:12.791Z,98991.91
2018-09-25T08:03:46.483Z,98993.67
2018-09-25T08:06:20.454Z,98985.53
2018-09-25T08:08:55.522Z,98980.16
2018-09-25T08:11:29.264Z,98993.11
2018-09-25T08:14:02.943Z,99001.11
2018-09-25T08:16:36.518Z,99003.66
2018-09-25T08:19:11.788Z,99004.33
2018-09-25T08:21:45.468Z,99000.74
2018-09-25T08:24:20.186Z,99003.34
2018-09-25T08:26:54.334Z,99010.91
2018-09-25T08:29:30.087Z,99008.03
2018-09-25T08:32:04.158Z,99012.69
2018-09-25T08:34:38.102Z,99008.81
2018-09-25T08:37:12.326Z,99017.95
2018-09-25T08:39:46.490Z,99015.20
2018-09-25T08:42:20.266Z,99012.09
2018-09-25T08:44:54.407Z,99024.73
2018-09-25T08:47:28.518Z,99023.67
2018-09-25T08:50:03.099Z,99023.48
2018-09-25T08:52:37.658Z,99030.88
2018-09-25T08:55:11.404Z,99027.84
2018-09-25T08:57:45.271Z,99024.00
2018-09-25T09:00:19.237Z,99035.18
2018-09-25T09:02:53.410Z,99033.44
2018-09-25T09:05:27.098Z,99041.63
2018-09-25T09:08:02.373Z,99034.80
2018-09-25T09:10:36.911Z,99048.34
2018-09-25T09:13:11.090Z,99050.41
2018-09-25T09:15:44.946Z,99044.88
2018-09-25T09:18:18.732Z,99046.55
2018-09-25T09:20:54.322Z,99045.94
2018-09-25T09:23:28.716Z,99049.78
2018-09-25T09:26:02.454Z,99049.41
2018-09-25T09:28:36.266Z,99044.07
2018-09-25T09:31:11.238Z,99035.42
2018-09-25T09:33:45.811Z,99051.32
2018-09-25T09:36:19.598Z,99046.88
2018-09-25T09:38:53.347Z,99044.02
2018-09-25T09:41:28.489Z,99046.48
2018-09-25T09:44:02.490Z,99047.64
2018-09-25T09:46:36.170Z,99039.30
2018-09-25T09:49:09.862Z,99043.38
2018-09-25T09:51:44.985Z,99041.09
2018-09-25T09:54:18.873Z,99043.79
2018-09-25T09:56:52.480Z,99048.58
2018-09-25T09:59:26.287Z,99034.70
2018-09-25T10:02:01.441Z,99030.27
2018-09-25T10:04:35.227Z,99028.77
2018-09-25T10:07:08.917Z,99033.98
2018-09-25T10:09:42.930Z,99031.70
2018-09-25T10:12:17.093Z,99032.80
2018-09-25T10:14:50.695Z,99027.41
2018-09-25T10:17:24.794Z,99028.05
2018-09-25T10:19:58.827Z,99030.26
2018-09-25T10:22:33.376Z,99027.85
2018-09-25T10:25:07.163Z,99033.61
2018-09-25T10:27:40.970Z,99022.11
2018-09-25T10:30:15.014Z,99025.61
2018-09-25T10:32:50.069Z,99016.83
2018-09-25T10:35:23.678Z,99014.98
2018-09-25T10:37:57.394Z,99018.36
2018-09-25T10:40:31.114Z,99017.22
2018-09-25T10:43:05.341Z,99001.98
2018-09-25T10:45:39.057Z,99008.44
2018-09-25T10:48:12.825Z,99008.58
2018-09-25T10:50:46.961Z,99010.23
2018-09-25T10:53:21.491Z,99016.54
2018-09-25T10:55:55.229Z,99021.52
2018-09-25T10:58:29.373Z,99006.11
2018-09-25T11:01:03.478Z,99008.60
2018-09-25T11:03:38.630Z,99015.43
2018-09-25T11:06:13.049Z,99002.44
2018-09-25T11:08:46.726Z,99001.39
2018-09-25T11:11:20.461Z,99023.02
2018-09-25T11:13:55.292Z,99021.16
2018-09-25T11:16:28.929Z,99020.72
2018-09-25T11:19:03.170Z,99015.30
2018-09-25T11:21:36.847Z,99007.22
2018-09-25T11:24:11.669Z,99006.12
2018-09-25T11:26:45.324Z,99009.07
2018-09-25T11:29:18.990Z,99006.94
2018-09-25T11:31:53.094Z,99007.98
2018-09-25T11:34:27.434Z,99009.50
2018-09-25T11:37:01.007Z,99006.62
2018-09-25T11:39:34.806Z,99005.52
2018-09-25T11:42:08.529Z,99010.92
2018-09-25T11:44:42.591Z,99002.61
2018-09-25T11:47:16.329Z,99007.59
2018-09-25T11:49:50.224Z,99005.70
2018-09-25T11:52:24.138Z,99007.31
2018-09-25T11:54:59.687Z,98998.95
2018-09-25T11:57:33.429Z,99000.83
2018-09-25T12:00:07.142Z,99007.13
2018-09-25T12:02:40.938Z,99013.00
2018-09-25T12:05:15.725Z,99018.28
2018-09-25T12:07:49.569Z,99016.74
2018-09-25T12:10:23.242Z,99021.50
2018-09-25T12:12:57.047Z,99017.27
2018-09-25T12:15:31.940Z,99022.14
2018-09-25T12:18:05.754Z,99012.67
2018-09-25T12:20:39.386Z,99013.02
2018-09-25T12:23:13.593Z,98994.14
2018-09-25T12:25:48.291Z,98994.97
2018-09-25T12:28:22.351Z,98987.64
2018-09-25T12:30:55.956Z,98978.44
2018-09-25T12:33:29.665Z,98978.51
2018-09-25T12:36:05.021Z,98983.81
2018-09-25T12:38:38.710Z,98974.98
2018-09-25T12:41:12.634Z,98978.83
2018-09-25T12:43:46.437Z,98982.53
2018-09-25T12:46:20.450Z,98976.92
2018-09-25T12:48:54.419Z,98972.97
2018-09-25T12:51:28.189Z,98971.58
2018-09-25T12:54:02.252Z,98978.50
2018-09-25T12:56:36.829Z,98984.80
2018-09-25T12:59:10.517Z,98974.09
2018-09-25T13:01:44.331Z,98962.20
2018-09-25T13:04:17.954Z,98958.89
2018-09-25T13:06:52.634Z,98964.93
2018-09-25T13:09:26.298Z,98970.17
2018-09-25T13:11:59.978Z,98960.95
2018-09-25T13:14:33.905Z,98963.22
2018-09-25T13:17:08.522Z,98975.59
2018-09-25T13:19:42.251Z,98966.94
2018-09-25T13:22:16.074Z,98949.20
2018-09-25T13:24:50.749Z,98951.52
2018-09-25T13:27:25.648Z,98947.48
2018-09-25T13:29:59.413Z,98939.38
2018-09-25T13:32:33.155Z,98940.54
2018-09-25T13:35:06.874Z,98935.80
2018-09-25T13:37:40.809Z,98931.33
2018-09-25T13:40:14.840Z,98935.70
2018-09-25T13:42:49.093Z,98932.42
2018-09-25T13:45:22.925Z,98929.21
2018-09-25T13:47:57.011Z,98928.92
2018-09-25T13:50:30.722Z,98915.27
2018-09-25T13:53:04.481Z,98921.84
2018-09-25T13:55:38.297Z,98918.96
2018-09-25T13:58:12.119Z,98907.00
2018-09-25T14:00:45.946Z,98901.06
2018-09-25T14:03:19.811Z,98907.28
2018-09-25T14:05:53.622Z,98906.77
2018-09-25T14:08:27.906Z,98883.83
2018-09-25T14:11:01.713Z,98884.59
2018-09-25T14:13:35.558Z,98887.34
2018-09-25T14:16:09.397Z,98891.16
2018-09-25T14:18:43.323Z,98890.34
2018-09-25T14:21:17.114Z,98899.24
2018-09-25T14:23:50.842Z,98897.53
2018-09-25T14:26:24.465Z,98884.28
2018-09-25T14:28:58.541Z,98884.25
2018-09-25T14:31:32.253Z,98875.23
2018-09-25T14:34:05.807Z,98874.38
2018-09-25T14:36:39.650Z,98871.30
2018-09-25T14:39:14.063Z,98875.14
2018-09-25T14:41:47.906Z,98870.05
2018-09-25T14:44:21.433Z,98875.84
2018-09-25T14:46:55.143Z,98875.03
2018-09-25T14:49:28.798Z,98869.45
2018-09-25T14:52:02.623Z,98865.48
2018-09-25T14:54:36.392Z,98868.74
2018-09-25T14:57:10.189Z,98863.07
2018-09-25T14:59:44.013Z,98864.06
2018-09-25T15:02:17.702Z,98862.54
2018-09-25T15:04:51.294Z,98863.23
2018-09-25T15:07:24.846Z,98858.45
2018-09-25T15:09:58.678Z,98859.95
2018-09-25T15:12:32.537Z,98851.06
2018-09-25T15:15:06.251Z,98854.50
2018-09-25T15:17:40.420Z,98848.87
2018-09-25T15:20:14.211Z,98843.08
2018-09-25T15:22:48.058Z,98844.63
2018-09-25T15:25:22.276Z,98838.95
2018-09-25T15:27:56.018Z,98842.58
2018-09-25T15:30:29.771Z,98844.44
2018-09-25T15:33:03.651Z,98847.88
2018-09-25T15:35:37.447Z,98853.20
2018-09-25T15:38:11.299Z,98861.48
2018-09-25T15:40:45.474Z,98859.83
2018-09-25T15:43:19.237Z,98861.17
2018-09-25T15:45:52.901Z,98859.80
2018-09-25T15:48:27.078Z,98861.59
2018-09-25T15:51:00.854Z,98849.91
2018-09-25T15:53:34.674Z,98854.23
2018-09-25T15:56:08.471Z,98851.52
2018-09-25T15:58:42.338Z,98850.47
2018-09-25T16:01:16.057Z,98850.20
2018-09-25T16:03:50.130Z,98848.66
2018-09-25T16:06:25.631Z,98847.53
2018-09-25T16:08:59.435Z,98849.98
2018-09-25T16:11:33.514Z,98850.94
2018-09-25T16:14:07.323Z,98852.72
2018-09-25T16:16:40.949Z,98848.48
2018-09-25T16:19:14.563Z,98846.91
2018-09-25T16:21:56.447Z,98848.91
2018-09-25T16:24:35.964Z,98846.06
2018-09-25T16:27:13.986Z,98855.25
2018-09-25T16:29:54.423Z,98857.49
2018-09-25T16:32:28.561Z,98849.13
2018-09-25T16:35:02.238Z,98850.23
2018-09-25T16:37:35.958Z,98851.88
2018-09-25T16:40:10.614Z,98855.48
2018-09-25T16:42:44.304Z,98853.48
2018-09-25T16:45:18.092Z,98851.81
2018-09-25T16:47:54.792Z,98850.96
2018-09-25T16:50:30.473Z,98852.01
2018-09-25T16:53:04.953Z,98855.97
2018-09-25T16:55:38.753Z,98851.92
2018-09-25T16:58:12.315Z,98851.86
2018-09-25T17:00:46.369Z,98858.05
2018-09-25T17:03:20.057Z,98861.78
2018-09-25T17:05:53.814Z,98873.25
2018-09-25T17:08:27.425Z,98870.70
2018-09-25T17:11:01.310Z,98873.66
2018-09-25T17:13:34.970Z,98867.19
2018-09-25T17:16:08.690Z,98876.86
2018-09-25T17:18:43.352Z,98874.12
2018-09-25T17:21:18.932Z,98883.09
2018-09-25T17:23:52.720Z,98886.05
2018-09-25T17:26:26.557Z,98878.66
2018-09-25T17:29:00.205Z,98893.92
2018-09-25T17:31:34.179Z,98896.91
2018-09-25T17:34:08.138Z,98891.02
2018-09-25T17:36:41.866Z,98897.15
2018-09-25T17:39:15.998Z,98899.61
2018-09-25T17:41:50.729Z,98894.98
2018-09-25T17:44:24.583Z,98898.25
2018-09-25T17:46:58.254Z,98907.70
2018-09-25T17:49:32.114Z,98910.33
2018-09-25T17:52:07.686Z,98911.12
2018-09-25T17:54:41.481Z,98910.36
2018-09-25T17:57:15.323Z,98914.23
2018-09-25T17:59:49.130Z,98917.23
2018-09-25T18:02:22.786Z,98923.52
2018-09-25T18:04:56.494Z,98921.25
2018-09-25T18:07:30.311Z,98921.00
2018-09-25T18:10:04.006Z,98926.32
2018-09-25T18:12:38.630Z,98925.45
2018-09-25T18:15:13.426Z,98916.34
2018-09-25T18:17:47.196Z,98921.77
2018-09-25T18:20:20.919Z,98924.26
2018-09-25T18:22:54.675Z,98926.47
2018-09-25T18:25:28.375Z,98924.44
2018-09-25T18:28:02.473Z,98928.56
2018-09-25T18:30:36.131Z,98929.19
2018-09-25T18:33:10.231Z,98929.61
2018-09-25T18:35:44.045Z,98933.84
2018-09-25T18:38:17.875Z,98940.22
2018-09-25T18:40:51.728Z,98939.72
2018-09-25T18:43:25.524Z,98948.65
2018-09-25T18:46:00.820Z,98946.30
2018-09-25T18:48:34.565Z,98950.31
2018-09-25T18:51:08.395Z,98953.53
2018-09-25T18:53:42.274Z,98961.08
2018-09-25T18:56:16.086Z,98960.57
2018-09-25T18:58:49.881Z,98958.66
2018-09-25T19:01:23.714Z,98953.88
2018-09-25T19:03:57.363Z,98951.98
2018-09-25T19:06:31.154Z,98953.65
2018-09-25T19:09:05.126Z,98956.44
2018-09-25T19:11:39.021Z,98960.44
2018-09-25T19:14:12.793Z,98962.56
2018-09-25T19:16:46.421Z,98963.50
2018-09-25T19:19:21.980Z,98972.95
2018-09-25T19:21:55.749Z,98966.39
2018-09-25T19:24:29.533Z,98967.66
2018-09-25T19:27:03.545Z,98961.31
2018-09-25T19:29:37.502Z,98959.04
2018-09-25T19:32:11.414Z,98963.93
2018-09-25T19:34:45.212Z,98963.16
2018-09-25T19:37:18.838Z,98961.53
2018-09-25T19:39:52.470Z,98973.42
2018-09-25T19:42:26.179Z,98979.01
2018-09-25T19:44:59.843Z,98970.39
2018-09-25T19:47:33.518Z,98964.06
2018-09-25T19:50:07.357Z,98963.94
2018-09-25T19:52:41.050Z,98956.81
2018-09-25T19:55:14.758Z,98949.48
2018-09-25T19:57:48.614Z,98952.45
2018-09-25T20:00:23.013Z,98958.31
2018-09-25T20:02:58.060Z,98959.98
2018-09-25T20:05:31.858Z,98959.66
2018-09-25T20:08:05.582Z,98962.77
2018-09-25T20:10:39.258Z,98957.52
2018-09-25T20:13:13.161Z,98963.02
2018-09-25T20:15:47.403Z,98959.50
2018-09-25T20:18:21.182Z,98962.83
2018-09-25T20:20:54.848Z,98962.66
2018-09-25T20:23:28.674Z,98955.80
2018-09-25T20:26:02.538Z,98954.84
2018-09-25T20:28:36.352Z,98953.14
2018-09-25T20:31:10.203Z,98945.02
2018-09-25T20:33:44.035Z,98938.19
2018-09-25T20:36:18.090Z,98949.51
2018-09-25T20:38:51.842Z,98945.61
2018-09-25T20:41:25.523Z,98943.94
2018-09-25T20:43:59.263Z,98937.89
2018-09-25T20:46:33.018Z,98939.64
2018-09-25T20:49:06.783Z,98934.69
2018-09-25T20:51:40.361Z,98932.55
2018-09-25T20:54:14.059Z,98935.02
2018-09-25T20:56:47.750Z,98926.95
2018-09-25T20:59:21.409Z,98927.00
2018-09-25T21:01:55.165Z,98921.36
2018-09-25T21:04:28.926Z,98915.16
2018-09-25T21:07:02.603Z,98917.96
2018-09-25T21:09:36.299Z,98909.17
2018-09-25T21:12:10.083Z,98896.53
2018-09-25T21:14:43.898Z,98897.58
2018-09-25T21:17:17.718Z,98903.27
2018-09-25T21:19:51.431Z,98905.47
2018-09-25T21:22:25.126Z,98897.05
2018-09-25T21:24:58.824Z,98900.00
2018-09-25T21:27:32.614Z,98901.28
2018-09-25T21:30:06.425Z,98898.34
2018-09-25T21:32:40.221Z,98896.97
2018-09-25T21:35:14.039Z,98888.17
2018-09-25T21:37:47.831Z,98883.07
2018-09-25T21:40:21.694Z,98879.41
2018-09-25T21:42:55.417Z,98885.02
2018-09-25T21:45:29.702Z,98874.54
2018-09-25T21:48:03.451Z,98883.54
2018-09-25T21:50:37.274Z,98877.58
2018-09-25T21:53:10.997Z,98878.23
2018-09-25T21:55:44.826Z,98880.08
2018-09-25T21:58:18.882Z,98879.08
2018-09-25T22:00:52.549Z,98872.42
2018-09-25T22:03:26.295Z,98874.06
2018-09-25T22:06:00.045Z,98866.91
2018-09-25T22:08:33.719Z,98867.45
2018-09-25T22:11:14.639Z,98865.94
2018-09-25T22:13:48.462Z,98871.09
2018-09-25T22:16:22.670Z,98870.43
2018-09-25T22:18:57.121Z,98872.07
2018-09-25T22:21:30.833Z,98871.90
2018-09-25T22:24:04.556Z,98874.09
2018-09-25T22:26:38.439Z,98869.09
2018-09-25T22:29:12.561Z,98871.27
2018-09-25T22:31:46.402Z,98873.44
2018-09-25T22:34:19.926Z,98863.97
2018-09-25T22:36:53.603Z,98868.41
2018-09-25T22:39:27.410Z,98875.89
2018-09-25T22:42:01.225Z,98876.39
2018-09-25T22:44:35.089Z,98874.95
2018-09-25T22:47:08.918Z,98876.80
2018-09-25T22:49:42.605Z,98873.18
2018-09-25T22:52:16.330Z,98869.53
2018-09-25T22:54:50.002Z,98870.84
2018-09-25T22:57:23.686Z,98866.91
2018-09-25T22:59:57.369Z,98873.05
2018-09-25T23:02:31.069Z,98864.45
2018-09-25T23:05:04.910Z,98856.63
2018-09-25T23:07:38.579Z,98847.00
2018-09-25T23:10:12.421Z,98838.73
2018-09-25T23:12:46.146Z,98826.46
2018-09-25T23:15:19.961Z,98819.17
2018-09-25T23:17:53.717Z,98810.54
2018-09-25T23:20:27.455Z,98814.84
2018-09-25T23:23:01.162Z,98818.88
2018-09-25T23:25:34.829Z,98822.52
2018-09-25T23:28:08.529Z,98816.54
2018-09-25T23:30:42.317Z,98811.89
2018-09-25T23:33:16.114Z,98803.42
2018-09-25T23:35:49.774Z,98806.92
2018-09-25T23:38:23.566Z,98796.82
2018-09-25T23:40:58.265Z,98787.61
2018-09-25T23:43:33.949Z,98784.23
2018-09-25T23:46:06.580Z,98776.42
2018-09-25T23:48:41.241Z,98768.32
2018-09-25T23:51:15.038Z,98759.30
2018-09-25T23:53:51.711Z,98755.70
2018-09-25T23:56:24.500Z,98757.17
2018-09-25T23:58:56.178Z,98752.12
